createdAt,value
2023-08-06T00:02:13.998Z,15.67
2023-08-06T00:04:41.969Z,15.67
2023-08-06T00:07:09.906Z,15.70
2023-08-06T00:09:37.921Z,15.69
2023-08-06T00:12:06.285Z,15.69
2023-08-06T00:14:34.167Z,15.68
2023-08-06T00:17:02.158Z,15.66
2023-08-06T00:19:30.244Z,15.61
2023-08-06T00:21:58.254Z,15.62
2023-08-06T00:24:26.213Z,15.60
2023-08-06T00:26:54.123Z,15.58
2023-08-06T00:29:22.418Z,15.54
2023-08-06T00:31:50.613Z,15.52
2023-08-06T00:34:18.847Z,15.47
2023-08-06T00:36:46.839Z,15.43
2023-08-06T00:39:14.754Z,15.39
2023-08-06T00:41:42.725Z,15.33
2023-08-06T00:44:10.646Z,15.30
2023-08-06T00:46:38.646Z,15.26
2023-08-06T00:49:07.449Z,15.23
2023-08-06T00:51:36.622Z,15.18
2023-08-06T00:54:04.868Z,15.14
2023-08-06T00:56:33.049Z,15.11
2023-08-06T00:59:01.128Z,15.07
2023-08-06T01:01:29.086Z,15.06
2023-08-06T01:03:57.188Z,15.04
2023-08-06T01:06:45.524Z,15.00
2023-08-06T01:09:33.119Z,14.99
2023-08-06T01:12:07.812Z,15.01
2023-08-06T01:14:55.188Z,14.96
2023-08-06T01:17:23.799Z,14.97
2023-08-06T01:19:51.855Z,14.97
2023-08-06T01:22:19.774Z,14.96
2023-08-06T01:24:53.531Z,14.92
2023-08-06T01:27:32.710Z,14.90
2023-08-06T01:30:14.518Z,14.87
2023-08-06T01:32:46.767Z,14.81
2023-08-06T01:35:17.733Z,14.77
2023-08-06T01:37:46.483Z,14.75
2023-08-06T01:40:15.662Z,14.70
2023-08-06T01:42:43.749Z,14.62
2023-08-06T01:45:12.858Z,14.58
2023-08-06T01:47:40.883Z,14.54
2023-08-06T01:50:09.144Z,14.49
2023-08-06T01:52:37.086Z,14.49
2023-08-06T01:55:05.282Z,14.45
2023-08-06T01:57:33.209Z,14.42
2023-08-06T02:00:01.154Z,14.38
2023-08-06T02:02:29.193Z,14.34
2023-08-06T02:04:57.246Z,14.34
2023-08-06T02:07:25.174Z,14.34
2023-08-06T02:09:53.172Z,14.34
2023-08-06T02:12:21.073Z,14.33
2023-08-06T02:14:49.052Z,14.31
2023-08-06T02:17:16.957Z,14.29
2023-08-06T02:19:45.629Z,14.29
2023-08-06T02:22:13.480Z,14.27
2023-08-06T02:24:41.426Z,14.27
2023-08-06T02:27:09.405Z,14.24
2023-08-06T02:29:37.376Z,14.22
2023-08-06T02:32:05.589Z,14.21
2023-08-06T02:34:33.444Z,14.19
2023-08-06T02:37:01.361Z,14.17
2023-08-06T02:39:29.216Z,14.17
2023-08-06T02:41:57.288Z,14.17
2023-08-06T02:44:25.305Z,14.16
2023-08-06T02:46:53.244Z,14.17
2023-08-06T02:49:21.170Z,14.19
2023-08-06T02:51:49.078Z,14.20
2023-08-06T02:54:17.006Z,14.18
2023-08-06T02:56:48.933Z,14.19
2023-08-06T02:59:16.936Z,14.17
2023-08-06T03:01:44.881Z,14.19
2023-08-06T03:04:12.892Z,14.18
2023-08-06T03:06:40.984Z,14.21
2023-08-06T03:09:08.930Z,14.22
2023-08-06T03:11:36.920Z,14.23
2023-08-06T03:14:04.827Z,14.24
2023-08-06T03:16:32.884Z,14.24
2023-08-06T03:19:00.796Z,14.26
2023-08-06T03:21:28.882Z,14.25
2023-08-06T03:23:56.954Z,14.29
2023-08-06T03:26:25.687Z,14.30
2023-08-06T03:28:53.579Z,14.30
2023-08-06T03:31:21.588Z,14.30
2023-08-06T03:33:49.484Z,14.30
2023-08-06T03:36:17.466Z,14.32
2023-08-06T03:38:45.390Z,14.30
2023-08-06T03:41:13.344Z,14.32
2023-08-06T03:43:41.318Z,14.32
2023-08-06T03:46:09.281Z,14.33
2023-08-06T03:48:37.132Z,14.33
2023-08-06T03:51:05.237Z,14.33
2023-08-06T03:53:33.185Z,14.35
2023-08-06T03:56:03.256Z,14.35
2023-08-06T03:58:31.277Z,14.36
2023-08-06T04:01:03.005Z,14.38
2023-08-06T04:03:31.445Z,14.38
2023-08-06T04:05:59.551Z,14.38
2023-08-06T04:08:27.394Z,14.41
2023-08-06T04:10:55.559Z,14.44
2023-08-06T04:13:23.648Z,14.44
2023-08-06T04:15:51.732Z,14.44
2023-08-06T04:18:19.611Z,14.45
2023-08-06T04:20:48.790Z,14.46
2023-08-06T04:23:16.809Z,14.48
2023-08-06T04:25:44.689Z,14.49
2023-08-06T04:28:12.638Z,14.52
2023-08-06T04:30:40.678Z,14.55
2023-08-06T04:33:08.632Z,14.58
2023-08-06T04:35:36.583Z,14.61
2023-08-06T04:38:04.527Z,14.62
2023-08-06T04:40:32.732Z,14.64
2023-08-06T04:43:00.629Z,14.69
2023-08-06T04:45:28.591Z,14.69
2023-08-06T04:47:56.801Z,14.71
2023-08-06T04:50:24.783Z,14.72
2023-08-06T04:52:52.750Z,14.51
2023-08-06T04:55:20.744Z,14.29
2023-08-06T04:57:48.715Z,14.13
2023-08-06T05:00:16.691Z,13.94
2023-08-06T05:02:44.798Z,13.82
2023-08-06T05:05:12.892Z,13.77
2023-08-06T05:07:41.110Z,13.71
2023-08-06T05:10:09.591Z,13.66
2023-08-06T05:12:37.550Z,13.57
2023-08-06T05:15:06.000Z,13.54
2023-08-06T05:17:34.242Z,13.52
2023-08-06T05:20:02.390Z,13.48
2023-08-06T05:22:30.316Z,13.49
2023-08-06T05:24:58.228Z,13.44
2023-08-06T05:27:26.165Z,13.45
2023-08-06T05:29:57.796Z,13.41
2023-08-06T05:32:25.793Z,13.40
2023-08-06T05:34:54.028Z,13.39
2023-08-06T05:37:22.224Z,13.37
2023-08-06T05:39:50.242Z,13.34
2023-08-06T05:42:18.675Z,13.34
2023-08-06T05:44:46.594Z,13.30
2023-08-06T05:47:14.520Z,13.23
2023-08-06T05:49:42.438Z,13.21
2023-08-06T05:52:10.840Z,13.17
2023-08-06T05:54:38.825Z,13.16
2023-08-06T05:57:07.394Z,13.17
2023-08-06T05:59:35.375Z,13.15
2023-08-06T06:02:03.415Z,13.19
2023-08-06T06:04:31.998Z,13.15
2023-08-06T06:06:59.965Z,13.18
2023-08-06T06:09:27.919Z,13.20
2023-08-06T06:11:56.088Z,13.25
2023-08-06T06:14:24.203Z,13.31
2023-08-06T06:16:52.385Z,13.36
2023-08-06T06:19:20.263Z,13.38
2023-08-06T06:21:48.199Z,13.44
2023-08-06T06:24:16.300Z,13.50
2023-08-06T06:26:44.347Z,13.56
2023-08-06T06:29:12.316Z,13.58
2023-08-06T06:31:40.314Z,13.60
2023-08-06T06:34:08.272Z,13.65
2023-08-06T06:36:36.286Z,13.69
2023-08-06T06:39:04.884Z,13.73
2023-08-06T06:41:35.327Z,13.75
2023-08-06T06:44:03.274Z,13.74
2023-08-06T06:46:31.210Z,13.80
2023-08-06T06:48:59.248Z,13.84
2023-08-06T06:51:27.161Z,13.90
2023-08-06T06:53:55.101Z,14.01
2023-08-06T06:56:23.087Z,14.04
2023-08-06T06:58:51.058Z,14.09
2023-08-06T07:01:19.203Z,14.12
2023-08-06T07:03:47.263Z,14.16
2023-08-06T07:06:15.346Z,14.21
2023-08-06T07:08:43.337Z,14.25
2023-08-06T07:11:11.283Z,14.30
2023-08-06T07:13:39.399Z,14.38
2023-08-06T07:16:09.711Z,14.38
2023-08-06T07:18:39.384Z,14.40
2023-08-06T07:21:07.298Z,14.39
2023-08-06T07:23:35.506Z,14.36
2023-08-06T07:26:07.534Z,14.34
2023-08-06T07:28:35.508Z,14.29
2023-08-06T07:31:09.030Z,14.29
2023-08-06T07:33:38.320Z,14.29
2023-08-06T07:36:17.132Z,14.31
2023-08-06T07:38:45.108Z,14.26
2023-08-06T07:41:13.083Z,14.27
2023-08-06T07:43:41.054Z,14.30
2023-08-06T07:46:10.950Z,14.27
2023-08-06T07:48:41.623Z,14.20
2023-08-06T07:51:09.594Z,14.23
2023-08-06T07:53:37.482Z,14.24
2023-08-06T07:56:05.717Z,14.24
2023-08-06T07:58:34.226Z,14.24
2023-08-06T08:01:05.917Z,14.22
2023-08-06T08:03:34.124Z,14.23
2023-08-06T08:06:04.317Z,14.24
2023-08-06T08:08:32.308Z,14.25
2023-08-06T08:11:02.951Z,14.29
2023-08-06T08:13:39.982Z,14.24
2023-08-06T08:16:08.065Z,14.17
2023-08-06T08:18:36.367Z,14.09
2023-08-06T08:21:04.568Z,14.09
2023-08-06T08:23:33.917Z,14.07
2023-08-06T08:26:03.541Z,14.08
2023-08-06T08:28:33.995Z,14.02
2023-08-06T08:31:01.970Z,14.02
2023-08-06T08:33:33.003Z,13.91
2023-08-06T08:36:01.622Z,13.79
2023-08-06T08:38:33.717Z,13.73
2023-08-06T08:41:01.835Z,13.71
2023-08-06T08:43:30.130Z,13.65
2023-08-06T08:46:01.277Z,13.63
2023-08-06T08:48:33.340Z,13.62
2023-08-06T08:51:04.268Z,13.62
2023-08-06T08:53:38.645Z,13.62
2023-08-06T08:56:09.308Z,13.61
2023-08-06T08:58:39.835Z,13.62
2023-08-06T09:01:09.874Z,13.63
2023-08-06T09:03:39.116Z,13.61
2023-08-06T09:06:12.862Z,13.62
2023-08-06T09:08:49.705Z,13.59
2023-08-06T09:11:18.639Z,13.60
2023-08-06T09:13:47.375Z,13.56
2023-08-06T09:16:15.437Z,13.77
2023-08-06T09:18:43.517Z,13.78
2023-08-06T09:21:17.522Z,13.74
2023-08-06T09:23:45.677Z,13.71
2023-08-06T09:26:16.764Z,13.73
2023-08-06T09:28:45.680Z,13.70
2023-08-06T09:31:13.713Z,13.70
2023-08-06T09:33:41.692Z,13.74
2023-08-06T09:36:13.503Z,13.74
2023-08-06T09:38:42.906Z,13.76
2023-08-06T09:41:11.157Z,13.81
2023-08-06T09:43:44.360Z,13.77
2023-08-06T09:46:16.771Z,13.81
2023-08-06T09:48:49.249Z,13.78
2023-08-06T09:51:17.928Z,13.75
2023-08-06T09:53:46.252Z,13.75
2023-08-06T09:56:17.929Z,13.74
2023-08-06T09:58:47.630Z,13.76
2023-08-06T10:01:16.419Z,13.84
2023-08-06T10:03:45.306Z,13.91
2023-08-06T10:06:14.545Z,14.00
2023-08-06T10:08:44.670Z,14.15
2023-08-06T10:11:13.564Z,14.23
2023-08-06T10:13:42.359Z,14.34
2023-08-06T10:16:10.443Z,14.47
2023-08-06T10:18:41.459Z,14.59
2023-08-06T10:21:12.339Z,14.70
2023-08-06T10:23:43.416Z,14.78
2023-08-06T10:26:11.414Z,14.86
2023-08-06T10:28:41.158Z,14.84
2023-08-06T10:31:09.442Z,14.79
2023-08-06T10:33:48.339Z,14.71
2023-08-06T10:36:17.526Z,14.59
2023-08-06T10:38:51.157Z,14.38
2023-08-06T10:41:29.979Z,14.32
2023-08-06T10:44:11.311Z,14.33
2023-08-06T10:46:40.384Z,14.31
2023-08-06T10:49:09.825Z,14.34
2023-08-06T10:51:38.867Z,14.27
2023-08-06T10:54:07.301Z,14.30
2023-08-06T10:56:43.012Z,14.40
2023-08-06T10:59:12.872Z,14.46
2023-08-06T11:01:41.596Z,14.54
2023-08-06T11:04:09.746Z,14.67
2023-08-06T11:06:37.694Z,14.73
2023-08-06T11:09:05.694Z,14.80
2023-08-06T11:11:33.634Z,14.87
2023-08-06T11:14:01.509Z,14.98
2023-08-06T11:16:29.550Z,15.04
2023-08-06T11:18:58.819Z,15.06
2023-08-06T11:21:27.393Z,15.03
2023-08-06T11:23:55.826Z,15.01
2023-08-06T11:26:25.547Z,15.05
2023-08-06T11:28:53.738Z,15.08
2023-08-06T11:31:23.303Z,15.17
2023-08-06T11:33:58.413Z,15.18
2023-08-06T11:36:37.104Z,15.26
2023-08-06T11:39:07.856Z,15.35
2023-08-06T11:41:36.244Z,15.37
2023-08-06T11:44:05.052Z,15.43
2023-08-06T11:46:56.853Z,15.42
2023-08-06T11:49:44.282Z,15.45
2023-08-06T11:52:12.918Z,15.35
2023-08-06T11:54:40.999Z,15.44
2023-08-06T11:57:09.351Z,15.48
2023-08-06T11:59:37.495Z,15.53
2023-08-06T12:02:09.873Z,15.47
2023-08-06T12:05:00.046Z,15.51
2023-08-06T12:07:32.791Z,15.56
2023-08-06T12:10:01.803Z,15.52
2023-08-06T12:12:30.084Z,15.45
2023-08-06T12:14:58.674Z,15.39
2023-08-06T12:17:27.288Z,15.35
2023-08-06T12:19:55.216Z,15.33
2023-08-06T12:22:24.785Z,15.38
2023-08-06T12:24:53.220Z,15.36
2023-08-06T12:27:21.184Z,15.38
2023-08-06T12:29:52.158Z,15.43
2023-08-06T12:32:21.626Z,15.41
2023-08-06T12:34:53.416Z,15.40
2023-08-06T12:37:21.908Z,15.39
2023-08-06T12:39:50.016Z,15.44
2023-08-06T12:42:18.016Z,15.45
2023-08-06T12:44:45.972Z,15.46
2023-08-06T12:47:13.965Z,15.54
2023-08-06T12:49:41.924Z,15.55
2023-08-06T12:52:11.769Z,15.60
2023-08-06T12:54:41.550Z,15.68
2023-08-06T12:57:09.772Z,15.74
2023-08-06T12:59:39.147Z,15.67
2023-08-06T13:02:07.147Z,15.71
2023-08-06T13:04:36.521Z,15.77
2023-08-06T13:07:04.461Z,15.82
2023-08-06T13:09:33.509Z,15.85
2023-08-06T13:12:02.492Z,15.95
2023-08-06T13:14:32.131Z,15.92
2023-08-06T13:17:00.094Z,15.93
2023-08-06T13:19:28.057Z,15.99
2023-08-06T13:22:07.644Z,16.00
2023-08-06T13:24:35.719Z,15.96
2023-08-06T13:27:04.209Z,15.90
2023-08-06T13:29:32.384Z,15.90
2023-08-06T13:32:00.506Z,15.99
2023-08-06T13:34:28.813Z,15.99
2023-08-06T13:36:57.151Z,16.03
2023-08-06T13:39:25.397Z,16.06
2023-08-06T13:41:53.379Z,16.09
2023-08-06T13:44:21.385Z,16.17
2023-08-06T13:46:49.361Z,16.25
2023-08-06T13:49:17.237Z,16.32
2023-08-06T13:51:45.183Z,16.35
2023-08-06T13:54:13.103Z,16.46
2023-08-06T13:56:41.137Z,16.43
2023-08-06T13:59:09.165Z,16.50
2023-08-06T14:01:49.443Z,16.55
2023-08-06T14:04:19.139Z,16.59
2023-08-06T14:06:47.148Z,16.48
2023-08-06T14:09:16.962Z,16.44
2023-08-06T14:11:44.880Z,16.48
2023-08-06T14:14:13.540Z,16.55
2023-08-06T14:16:41.531Z,16.50
2023-08-06T14:19:09.536Z,16.47
2023-08-06T14:21:37.515Z,16.45
2023-08-06T14:24:05.784Z,16.54
2023-08-06T14:26:33.782Z,16.64
2023-08-06T14:29:01.895Z,16.66
2023-08-06T14:31:30.020Z,16.65
2023-08-06T14:33:58.122Z,16.66
2023-08-06T14:36:26.115Z,16.66
2023-08-06T14:38:59.912Z,16.69
2023-08-06T14:41:28.773Z,16.81
2023-08-06T14:43:57.071Z,16.84
2023-08-06T14:46:25.160Z,16.87
2023-08-06T14:48:53.198Z,16.90
2023-08-06T14:51:22.662Z,16.79
2023-08-06T14:53:50.659Z,16.79
2023-08-06T14:56:18.651Z,16.84
2023-08-06T14:58:46.721Z,16.90
2023-08-06T15:01:15.161Z,16.92
2023-08-06T15:03:43.134Z,16.93
2023-08-06T15:06:11.105Z,17.01
2023-08-06T15:08:39.487Z,17.08
2023-08-06T15:11:07.461Z,17.10
2023-08-06T15:13:35.563Z,17.16
2023-08-06T15:16:03.574Z,17.21
2023-08-06T15:18:31.538Z,17.30
2023-08-06T15:21:00.161Z,17.37
2023-08-06T15:23:28.232Z,17.39
2023-08-06T15:25:56.300Z,17.36
2023-08-06T15:28:24.241Z,17.40
2023-08-06T15:30:53.304Z,17.45
2023-08-06T15:33:21.476Z,17.51
2023-08-06T15:35:50.165Z,17.58
2023-08-06T15:38:18.254Z,17.65
2023-08-06T15:40:49.197Z,17.72
2023-08-06T15:43:17.225Z,17.79
2023-08-06T15:45:45.226Z,17.86
2023-08-06T15:48:13.326Z,17.96
2023-08-06T15:50:43.984Z,17.93
2023-08-06T15:53:14.542Z,18.02
2023-08-06T15:55:43.048Z,18.06
2023-08-06T15:58:11.023Z,18.10
2023-08-06T16:00:39.161Z,18.03
2023-08-06T16:03:07.294Z,17.87
2023-08-06T16:05:36.927Z,17.71
2023-08-06T16:08:04.981Z,17.59
2023-08-06T16:10:32.999Z,17.46
2023-08-06T16:13:00.943Z,17.30
2023-08-06T16:15:28.897Z,16.96
2023-08-06T16:17:58.200Z,16.27
2023-08-06T16:20:26.230Z,15.67
2023-08-06T16:22:54.143Z,15.39
2023-08-06T16:25:22.095Z,15.19
2023-08-06T16:27:49.985Z,15.07
2023-08-06T16:30:19.114Z,14.99
2023-08-06T16:32:47.155Z,14.98
2023-08-06T16:35:15.448Z,15.04
2023-08-06T16:37:43.404Z,15.07
2023-08-06T16:40:11.805Z,15.16
2023-08-06T16:42:39.780Z,15.29
2023-08-06T16:45:08.405Z,15.41
2023-08-06T16:47:36.358Z,15.49
2023-08-06T16:50:04.446Z,15.58
2023-08-06T16:52:32.425Z,15.58
2023-08-06T16:55:00.485Z,15.57
2023-08-06T16:57:28.374Z,15.52
2023-08-06T16:59:56.318Z,15.46
2023-08-06T17:02:24.460Z,15.42
2023-08-06T17:04:52.538Z,15.43
2023-08-06T17:07:20.536Z,15.42
2023-08-06T17:09:48.560Z,15.43
2023-08-06T17:12:20.788Z,15.44
2023-08-06T17:14:49.041Z,15.48
2023-08-06T17:17:17.119Z,15.52
2023-08-06T17:19:48.334Z,15.49
2023-08-06T17:22:16.237Z,15.47
2023-08-06T17:24:44.220Z,15.49
2023-08-06T17:27:12.246Z,15.50
2023-08-06T17:29:41.072Z,15.51
2023-08-06T17:32:09.808Z,15.49
2023-08-06T17:34:37.897Z,15.51
2023-08-06T17:37:08.168Z,15.49
2023-08-06T17:39:36.171Z,15.46
2023-08-06T17:42:06.973Z,15.46
2023-08-06T17:44:34.958Z,15.40
2023-08-06T17:47:03.016Z,15.33
2023-08-06T17:49:31.223Z,15.30
2023-08-06T17:51:59.267Z,15.26
2023-08-06T17:54:27.349Z,15.25
2023-08-06T17:56:58.549Z,15.22
2023-08-06T17:59:27.260Z,15.18
2023-08-06T18:01:55.304Z,15.19
2023-08-06T18:04:23.388Z,15.15
2023-08-06T18:06:51.359Z,15.12
2023-08-06T18:09:19.307Z,15.13
2023-08-06T18:11:47.214Z,15.12
2023-08-06T18:14:15.180Z,15.12
2023-08-06T18:16:43.124Z,15.13
2023-08-06T18:19:11.112Z,15.14
2023-08-06T18:21:39.076Z,15.13
2023-08-06T18:24:07.062Z,15.13
2023-08-06T18:26:35.053Z,15.11
2023-08-06T18:29:03.737Z,15.10
2023-08-06T18:31:32.171Z,15.10
2023-08-06T18:34:00.566Z,15.07
2023-08-06T18:36:28.491Z,15.01
2023-08-06T18:38:56.521Z,14.99
2023-08-06T18:41:24.554Z,14.97
2023-08-06T18:43:52.734Z,14.94
2023-08-06T18:46:21.151Z,14.93
2023-08-06T18:48:49.113Z,14.88
2023-08-06T18:51:17.111Z,14.90
2023-08-06T18:53:45.061Z,14.90
2023-08-06T18:56:13.023Z,14.89
2023-08-06T18:58:42.211Z,14.86
2023-08-06T19:01:10.675Z,14.87
2023-08-06T19:03:38.795Z,14.82
2023-08-06T19:06:08.659Z,14.79
2023-08-06T19:08:38.706Z,14.77
2023-08-06T19:11:06.711Z,14.74
2023-08-06T19:13:34.816Z,14.71
2023-08-06T19:16:02.891Z,14.71
2023-08-06T19:18:30.926Z,14.71
2023-08-06T19:20:59.664Z,14.70
2023-08-06T19:23:29.724Z,14.70
2023-08-06T19:25:58.806Z,14.65
2023-08-06T19:28:26.843Z,14.55
2023-08-06T19:30:54.836Z,14.47
2023-08-06T19:33:23.665Z,14.38
2023-08-06T19:35:55.687Z,14.33
2023-08-06T19:38:25.707Z,14.29
2023-08-06T19:41:03.713Z,14.24
2023-08-06T19:43:31.772Z,14.23
2023-08-06T19:46:00.911Z,14.23
2023-08-06T19:48:29.015Z,14.22
2023-08-06T19:51:03.200Z,14.24
2023-08-06T19:53:34.438Z,14.24
2023-08-06T19:56:06.403Z,14.22
2023-08-06T19:58:35.709Z,14.22
2023-08-06T20:01:05.045Z,14.20
2023-08-06T20:03:34.564Z,14.20
2023-08-06T20:06:06.252Z,14.14
2023-08-06T20:08:34.789Z,14.10
2023-08-06T20:11:02.768Z,14.06
2023-08-06T20:13:30.702Z,14.05
2023-08-06T20:16:01.194Z,14.05
2023-08-06T20:18:31.352Z,14.03
2023-08-06T20:20:59.394Z,13.99
2023-08-06T20:23:28.064Z,13.94
2023-08-06T20:25:56.209Z,13.89
2023-08-06T20:28:25.031Z,13.91
2023-08-06T20:30:53.009Z,13.89
2023-08-06T20:33:21.090Z,13.88
2023-08-06T20:35:52.276Z,13.88
2023-08-06T20:38:21.324Z,13.85
2023-08-06T20:40:49.337Z,13.82
2023-08-06T20:43:17.696Z,13.82
2023-08-06T20:45:45.645Z,13.83
2023-08-06T20:48:13.557Z,13.78
2023-08-06T20:50:43.408Z,13.79
2023-08-06T20:53:14.303Z,13.79
2023-08-06T20:55:46.473Z,13.76
2023-08-06T20:58:14.433Z,13.76
2023-08-06T21:00:42.718Z,13.77
2023-08-06T21:03:10.690Z,13.73
2023-08-06T21:05:38.663Z,13.70
2023-08-06T21:08:06.564Z,13.70
2023-08-06T21:10:34.487Z,13.67
2023-08-06T21:13:02.440Z,13.66
2023-08-06T21:15:32.714Z,13.66
2023-08-06T21:18:00.705Z,13.62
2023-08-06T21:20:28.772Z,13.61
2023-08-06T21:22:56.747Z,13.61
2023-08-06T21:25:24.793Z,13.58
2023-08-06T21:27:52.763Z,13.52
2023-08-06T21:30:20.703Z,13.53
2023-08-06T21:32:49.155Z,13.51
2023-08-06T21:35:17.623Z,13.49
2023-08-06T21:37:45.569Z,13.49
2023-08-06T21:40:14.070Z,13.48
2023-08-06T21:42:41.992Z,13.49
2023-08-06T21:45:10.224Z,13.47
2023-08-06T21:47:38.477Z,13.47
2023-08-06T21:50:07.492Z,13.48
2023-08-06T21:52:35.423Z,13.48
2023-08-06T21:55:03.474Z,13.48
2023-08-06T21:57:33.986Z,13.48
2023-08-06T22:00:01.953Z,13.47
2023-08-06T22:02:30.011Z,13.49
2023-08-06T22:04:58.243Z,13.45
2023-08-06T22:07:26.321Z,13.45
2023-08-06T22:09:56.723Z,13.46
2023-08-06T22:12:24.754Z,13.47
2023-08-06T22:14:56.199Z,13.46
2023-08-06T22:17:24.149Z,13.47
2023-08-06T22:19:52.179Z,13.46
2023-08-06T22:22:21.572Z,13.46
2023-08-06T22:24:49.629Z,13.46
2023-08-06T22:27:17.621Z,13.47
2023-08-06T22:29:45.521Z,13.49
2023-08-06T22:32:13.456Z,13.49
2023-08-06T22:34:41.706Z,13.49
2023-08-06T22:37:09.617Z,13.48
2023-08-06T22:39:37.547Z,13.50
2023-08-06T22:42:05.733Z,13.51
2023-08-06T22:44:33.813Z,13.51
2023-08-06T22:47:01.814Z,13.52
2023-08-06T22:49:29.720Z,13.51
2023-08-06T22:51:58.085Z,13.51
2023-08-06T22:54:26.225Z,13.48
2023-08-06T22:56:54.339Z,13.49
2023-08-06T22:59:22.248Z,13.46
2023-08-06T23:01:50.190Z,13.51
2023-08-06T23:04:18.316Z,13.50
2023-08-06T23:06:46.275Z,13.48
2023-08-06T23:09:14.225Z,13.48
2023-08-06T23:11:42.215Z,13.47
2023-08-06T23:14:10.144Z,13.44
2023-08-06T23:16:38.262Z,13.42
2023-08-06T23:19:06.177Z,13.40
2023-08-06T23:21:34.315Z,13.40
2023-08-06T23:24:02.389Z,13.40
2023-08-06T23:26:30.233Z,13.40
2023-08-06T23:28:58.277Z,13.39
2023-08-06T23:31:26.335Z,13.39
2023-08-06T23:33:54.370Z,13.33
2023-08-06T23:36:22.472Z,13.30
2023-08-06T23:38:52.868Z,13.28
2023-08-06T23:41:20.716Z,13.26
2023-08-06T23:43:48.679Z,13.25
2023-08-06T23:46:16.600Z,13.22
2023-08-06T23:48:44.473Z,13.20
2023-08-06T23:51:12.565Z,13.18
2023-08-06T23:53:40.414Z,13.17
2023-08-06T23:56:08.493Z,13.15
2023-08-06T23:58:36.393Z,13.14
